createdAt,value
2019-04-20T00:01:36.023Z,8.59
2019-04-20T00:04:05.433Z,8.58
2019-04-20T00:06:43.376Z,8.71
2019-04-20T00:09:12.063Z,8.81
2019-04-20T00:11:50.709Z,8.84
2019-04-20T00:14:13.432Z,8.85
2019-04-20T00:16:37.825Z,8.81
2019-04-20T00:19:08.532Z,8.53
2019-04-20T00:21:47.362Z,8.43
2019-04-20T00:24:16.877Z,8.47
2019-04-20T00:27:08.548Z,8.54
2019-04-20T00:29:32.218Z,8.45
2019-04-20T00:31:53.610Z,8.38
2019-04-20T00:34:21.292Z,8.25
2019-04-20T00:36:43.424Z,8.43
2019-04-20T00:39:15.014Z,8.49
2019-04-20T00:41:49.898Z,8.53
2019-04-20T00:44:21.934Z,8.49
2019-04-20T00:46:56.832Z,8.53
2019-04-20T00:49:30.584Z,8.50
2019-04-20T00:52:17.059Z,8.45
2019-04-20T00:54:15.984Z,8.44
2019-04-20T00:56:45.447Z,8.44
2019-04-20T00:59:27.659Z,8.50
2019-04-20T01:02:04.052Z,8.49
2019-04-20T01:04:38.870Z,8.48
2019-04-20T01:07:06.301Z,8.52
2019-04-20T01:09:25.025Z,8.66
2019-04-20T01:11:54.527Z,8.71
2019-04-20T01:14:34.058Z,8.81
2019-04-20T01:16:58.794Z,8.87
2019-04-20T01:19:24.016Z,8.86
2019-04-20T01:21:59.674Z,8.87
2019-04-20T01:24:29.708Z,8.83
2019-04-20T01:26:58.463Z,8.82
2019-04-20T01:29:32.439Z,8.92
2019-04-20T01:32:07.979Z,8.82
2019-04-20T01:34:39.165Z,8.69
2019-04-20T01:37:09.299Z,8.65
2019-04-20T01:39:34.806Z,8.48
2019-04-20T01:41:56.143Z,8.43
2019-04-20T01:44:31.742Z,8.36
2019-04-20T01:46:58.722Z,8.36
2019-04-20T01:49:31.535Z,8.38
2019-04-20T01:52:09.701Z,8.28
2019-04-20T01:54:48.193Z,8.25
2019-04-20T01:57:09.002Z,8.27
2019-04-20T01:59:50.151Z,8.24
2019-04-20T02:02:14.624Z,8.19
2019-04-20T02:04:48.271Z,8.09
2019-04-20T02:07:18.449Z,8.00
2019-04-20T02:09:53.462Z,7.99
2019-04-20T02:12:23.655Z,8.02
2019-04-20T02:14:53.713Z,8.03
2019-04-20T02:17:28.366Z,8.12
2019-04-20T02:20:07.335Z,8.18
2019-04-20T02:22:40.754Z,8.22
2019-04-20T02:24:48.961Z,8.27
2019-04-20T02:27:19.725Z,8.35
2019-04-20T02:30:13.459Z,8.53
2019-04-20T02:32:59.266Z,8.67
2019-04-20T02:35:30.230Z,8.73
2019-04-20T02:38:02.885Z,8.50
2019-04-20T02:40:47.729Z,8.64
2019-04-20T02:48:08.098Z,8.44
2019-04-20T02:50:28.651Z,8.42
2019-04-20T02:53:05.125Z,8.43
2019-04-20T03:00:23.937Z,8.55
2019-04-20T03:02:43.936Z,8.51
2019-04-20T03:05:12.179Z,8.43
2019-04-20T03:07:52.528Z,8.48
2019-04-20T03:10:17.730Z,8.49
2019-04-20T03:12:53.706Z,8.39
2019-04-20T03:15:24.051Z,8.63
2019-04-20T03:17:53.087Z,8.69
2019-04-20T03:20:22.104Z,8.76
2019-04-20T03:23:11.681Z,8.80
2019-04-20T03:25:43.112Z,8.77
2019-04-20T03:28:10.323Z,8.73
2019-04-20T03:33:31.414Z,8.45
2019-04-20T03:36:06.148Z,8.36
2019-04-20T03:38:21.110Z,8.33
2019-04-20T03:40:42.726Z,8.25
2019-04-20T03:43:01.994Z,8.21
2019-04-20T03:45:39.184Z,8.24
2019-04-20T03:48:14.352Z,8.30
2019-04-20T03:50:54.670Z,8.28
2019-04-20T03:53:22.953Z,8.35
2019-04-20T03:55:52.865Z,8.35
2019-04-20T03:58:30.569Z,8.32
2019-04-20T04:01:32.867Z,8.26
2019-04-20T04:04:05.387Z,8.28
2019-04-20T04:06:24.161Z,8.27
2019-04-20T04:08:57.542Z,8.28
2019-04-20T04:11:35.298Z,8.29
2019-04-20T04:13:46.484Z,8.38
2019-04-20T04:16:18.483Z,8.43
2019-04-20T04:18:49.631Z,8.54
2019-04-20T04:21:22.092Z,8.54
2019-04-20T04:24:02.420Z,8.60
2019-04-20T04:26:34.344Z,8.63
2019-04-20T04:29:11.010Z,8.70
2019-04-20T04:31:39.127Z,8.82
2019-04-20T04:34:22.883Z,8.90
2019-04-20T04:36:39.140Z,8.97
2019-04-20T04:39:08.683Z,8.99
2019-04-20T04:41:37.443Z,8.89
2019-04-20T04:44:09.926Z,9.08
2019-04-20T04:46:20.693Z,9.29
2019-04-20T04:48:52.738Z,9.38
2019-04-20T04:51:25.711Z,9.37
2019-04-20T04:53:59.335Z,9.36
2019-04-20T04:56:23.976Z,9.25
2019-04-20T04:58:51.732Z,9.43
2019-04-20T05:01:26.006Z,9.63
2019-04-20T05:04:19.238Z,9.61
2019-04-20T05:06:35.657Z,9.56
2019-04-20T05:08:56.831Z,9.37
2019-04-20T05:11:23.801Z,9.18
2019-04-20T05:13:59.705Z,9.27
2019-04-20T05:16:40.942Z,9.43
2019-04-20T05:21:53.555Z,9.63
2019-04-20T05:24:27.943Z,9.61
2019-04-20T05:27:01.933Z,9.50
2019-04-20T05:29:17.706Z,9.46
2019-04-20T05:31:47.131Z,9.68
2019-04-20T05:34:30.914Z,9.86
2019-04-20T05:37:03.640Z,9.98
2019-04-20T05:39:33.000Z,9.84
2019-04-20T05:42:02.975Z,9.67
2019-04-20T05:44:39.434Z,10.02
2019-04-20T05:47:09.273Z,10.22
2019-04-20T05:49:40.273Z,10.50
2019-04-20T05:52:15.340Z,10.71
2019-04-20T05:54:43.090Z,10.95
2019-04-20T05:57:19.540Z,10.91
2019-04-20T05:59:47.342Z,10.86
2019-04-20T06:02:14.034Z,11.31
2019-04-20T06:04:54.572Z,11.24
2019-04-20T06:07:09.458Z,11.48
2019-04-20T06:09:39.679Z,11.82
2019-04-20T06:12:25.385Z,12.06
2019-04-20T06:14:53.631Z,12.05
2019-04-20T06:17:33.356Z,12.26
2019-04-20T06:20:06.246Z,12.64
2019-04-20T06:22:37.904Z,12.62
2019-04-20T06:25:21.895Z,12.80
2019-04-20T06:27:39.980Z,13.05
2019-04-20T06:30:06.891Z,13.10
2019-04-20T06:33:11.486Z,13.46
2019-04-20T06:35:51.729Z,13.48
2019-04-20T06:38:10.146Z,12.88
2019-04-20T06:40:46.884Z,12.86
2019-04-20T06:43:08.996Z,13.03
2019-04-20T06:45:33.569Z,13.28
2019-04-20T06:48:05.831Z,13.89
2019-04-20T06:50:30.245Z,14.32
2019-04-20T06:53:32.417Z,14.81
2019-04-20T06:55:57.368Z,14.99
2019-04-20T06:58:39.375Z,15.67
2019-04-20T07:00:56.922Z,16.53
2019-04-20T07:03:40.712Z,17.36
2019-04-20T07:06:18.300Z,18.32
2019-04-20T07:08:42.316Z,17.71
2019-04-20T07:11:04.187Z,17.51
2019-04-20T07:13:17.675Z,18.23
2019-04-20T07:16:18.552Z,18.66
2019-04-20T07:19:00.823Z,18.66
2019-04-20T07:22:08.886Z,17.36
2019-04-20T07:24:24.858Z,14.91
2019-04-20T07:26:58.847Z,14.86
2019-04-20T07:29:32.033Z,13.68
2019-04-20T07:31:48.745Z,13.09
2019-04-20T07:34:26.176Z,13.11
2019-04-20T07:37:17.743Z,14.33
2019-04-20T07:39:32.792Z,14.37
2019-04-20T07:42:01.820Z,13.66
2019-04-20T07:44:38.590Z,14.38
2019-04-20T07:47:07.849Z,13.85
2019-04-20T07:49:32.613Z,13.91
2019-04-20T07:51:43.702Z,14.33
2019-04-20T07:54:40.161Z,14.68
2019-04-20T07:57:02.085Z,14.69
2019-04-20T07:59:24.366Z,16.02
2019-04-20T08:02:07.824Z,18.70
2019-04-20T08:04:32.495Z,19.30
2019-04-20T08:06:53.200Z,17.02
2019-04-20T08:09:26.157Z,16.20
2019-04-20T08:12:22.509Z,14.86
2019-04-20T08:14:47.378Z,13.76
2019-04-20T08:17:26.792Z,15.12
2019-04-20T08:19:48.448Z,16.84
2019-04-20T08:22:21.868Z,17.72
2019-04-20T08:24:42.826Z,16.71
2019-04-20T08:27:07.591Z,15.51
2019-04-20T08:29:49.929Z,16.23
2019-04-20T08:32:28.323Z,15.96
2019-04-20T08:35:04.934Z,15.39
2019-04-20T08:37:26.612Z,16.63
2019-04-20T08:42:39.796Z,14.27
2019-04-20T08:45:04.024Z,14.45
2019-04-20T08:47:48.661Z,13.84
2019-04-20T08:50:17.264Z,13.67
2019-04-20T08:53:06.132Z,13.77
2019-04-20T08:55:09.272Z,16.11
2019-04-20T08:57:24.793Z,15.46
2019-04-20T08:59:54.361Z,13.86
2019-04-20T09:02:25.730Z,16.48
2019-04-20T09:05:02.540Z,17.60
2019-04-20T09:07:29.907Z,17.18
2019-04-20T09:10:16.435Z,16.32
2019-04-20T09:12:42.149Z,15.61
2019-04-20T09:14:57.367Z,15.08
2019-04-20T09:17:45.243Z,14.81
2019-04-20T09:20:16.256Z,14.71
2019-04-20T09:23:09.774Z,16.03
2019-04-20T09:25:53.376Z,19.43
2019-04-20T09:28:13.937Z,22.13
2019-04-20T09:30:48.122Z,23.31
2019-04-20T09:33:47.008Z,21.89
2019-04-20T09:36:19.654Z,20.15
2019-04-20T09:39:01.097Z,20.08
2019-04-20T09:41:54.842Z,19.38
2019-04-20T09:44:06.750Z,18.91
2019-04-20T09:46:40.163Z,20.12
2019-04-20T09:49:16.979Z,17.71
2019-04-20T09:51:51.142Z,20.75
2019-04-20T09:54:29.991Z,20.75
2019-04-20T09:56:59.232Z,22.64
2019-04-20T09:59:30.618Z,19.62
2019-04-20T10:01:45.376Z,23.55
2019-04-20T10:04:08.835Z,22.64
2019-04-20T10:06:37.761Z,20.11
2019-04-20T10:09:09.638Z,17.03
2019-04-20T10:11:41.770Z,18.92
2019-04-20T10:14:10.291Z,20.22
2019-04-20T10:16:40.014Z,23.22
2019-04-20T10:19:11.463Z,24.51
2019-04-20T10:21:39.178Z,26.44
2019-04-20T10:24:08.550Z,24.09
2019-04-20T10:26:38.594Z,21.21
2019-04-20T10:29:07.919Z,20.35
2019-04-20T10:31:42.564Z,23.61
2019-04-20T10:34:07.518Z,24.37
2019-04-20T10:36:41.732Z,25.98
2019-04-20T10:39:10.872Z,27.42
2019-04-20T10:41:50.150Z,26.92
2019-04-20T10:44:11.212Z,26.86
2019-04-20T10:46:40.954Z,28.83
2019-04-20T10:49:11.092Z,28.67
2019-04-20T10:51:40.264Z,28.12
2019-04-20T10:54:08.960Z,28.94
2019-04-20T10:56:37.679Z,29.96
2019-04-20T10:59:07.629Z,26.20
2019-04-20T11:01:37.938Z,21.45
2019-04-20T11:04:06.783Z,20.10
2019-04-20T11:06:36.508Z,20.51
2019-04-20T11:09:08.883Z,20.96
2019-04-20T11:11:38.788Z,20.09
2019-04-20T11:14:15.583Z,19.33
2019-04-20T11:16:38.309Z,21.11
2019-04-20T11:19:07.511Z,21.43
2019-04-20T11:21:36.580Z,20.79
2019-04-20T11:24:05.396Z,22.29
2019-04-20T11:26:37.092Z,22.11
2019-04-20T11:29:06.396Z,24.76
2019-04-20T11:31:40.883Z,27.74
2019-04-20T11:34:06.071Z,28.32
2019-04-20T11:36:35.037Z,27.57
2019-04-20T11:39:07.169Z,28.01
2019-04-20T11:41:37.701Z,29.90
2019-04-20T11:44:07.601Z,31.32
2019-04-20T11:46:36.667Z,28.34
2019-04-20T11:49:05.806Z,24.01
2019-04-20T11:51:34.548Z,22.21
2019-04-20T11:54:04.236Z,19.83
2019-04-20T11:56:38.273Z,19.43
2019-04-20T11:59:03.766Z,18.58
2019-04-20T12:01:43.075Z,17.75
2019-04-20T12:04:21.520Z,16.65
2019-04-20T12:06:36.920Z,17.03
2019-04-20T12:09:09.047Z,17.55
2019-04-20T12:11:53.480Z,19.26
2019-04-20T12:14:08.163Z,20.72
2019-04-20T12:16:37.503Z,20.51
2019-04-20T12:19:06.498Z,19.31
2019-04-20T12:21:35.168Z,18.27
2019-04-20T12:24:04.528Z,18.27
2019-04-20T12:26:33.263Z,18.51
2019-04-20T12:29:01.962Z,18.97
2019-04-20T12:31:31.502Z,18.79
2019-04-20T12:34:00.377Z,17.85
2019-04-20T12:36:30.215Z,18.12
2019-04-20T12:38:59.240Z,17.54
2019-04-20T12:41:37.851Z,17.43
2019-04-20T12:43:59.531Z,19.30
2019-04-20T12:46:29.656Z,22.82
2019-04-20T12:48:59.786Z,22.04
2019-04-20T12:51:33.501Z,23.49
2019-04-20T12:53:58.912Z,22.25
2019-04-20T12:56:28.540Z,19.68
2019-04-20T12:58:57.799Z,19.33
2019-04-20T13:01:26.888Z,18.24
2019-04-20T13:03:57.404Z,18.24
2019-04-20T13:06:27.912Z,17.19
2019-04-20T13:09:00.284Z,17.12
2019-04-20T13:11:43.597Z,17.22
2019-04-20T13:14:35.100Z,19.70
2019-04-20T13:17:04.218Z,20.72
2019-04-20T13:19:33.350Z,21.20
2019-04-20T13:22:03.235Z,23.59
2019-04-20T13:24:32.397Z,25.70
2019-04-20T13:27:01.199Z,23.76
2019-04-20T13:29:30.994Z,23.08
2019-04-20T13:32:00.142Z,21.27
2019-04-20T13:34:29.059Z,24.02
2019-04-20T13:36:58.191Z,21.95
2019-04-20T13:39:27.021Z,22.60
2019-04-20T13:42:04.464Z,19.92
2019-04-20T13:44:27.213Z,17.65
2019-04-20T13:46:56.718Z,17.00
2019-04-20T13:49:25.530Z,17.60
2019-04-20T13:51:54.886Z,15.71
2019-04-20T13:54:26.592Z,15.07
2019-04-20T13:56:55.791Z,15.06
2019-04-20T13:59:35.315Z,13.87
2019-04-20T14:02:06.755Z,14.64
2019-04-20T14:04:37.096Z,17.03
2019-04-20T14:07:07.395Z,19.04
2019-04-20T14:09:37.328Z,18.49
2019-04-20T14:12:20.212Z,17.51
2019-04-20T14:14:37.237Z,15.58
2019-04-20T14:17:07.544Z,15.64
2019-04-20T14:19:36.965Z,14.96
2019-04-20T14:22:06.145Z,14.55
2019-04-20T14:24:35.097Z,14.41
2019-04-20T14:27:03.984Z,14.76
2019-04-20T14:29:32.845Z,14.55
2019-04-20T14:32:03.652Z,14.79
2019-04-20T14:34:33.102Z,15.86
2019-04-20T14:37:02.553Z,15.90
2019-04-20T14:39:32.390Z,17.51
2019-04-20T14:42:02.305Z,17.94
2019-04-20T14:44:32.056Z,16.81
2019-04-20T14:47:01.018Z,18.14
2019-04-20T14:49:30.505Z,19.40
2019-04-20T14:52:01.150Z,20.42
2019-04-20T14:54:30.023Z,20.42
2019-04-20T14:56:59.199Z,19.34
2019-04-20T14:59:33.742Z,20.41
2019-04-20T15:02:04.083Z,20.87
2019-04-20T15:04:34.742Z,21.21
2019-04-20T15:07:04.657Z,21.21
2019-04-20T15:09:38.440Z,21.52
2019-04-20T15:12:06.803Z,20.08
2019-04-20T15:14:36.745Z,18.98
2019-04-20T15:17:06.767Z,18.42
2019-04-20T15:19:37.380Z,17.76
2019-04-20T15:22:23.774Z,18.41
2019-04-20T15:24:55.671Z,19.42
2019-04-20T15:27:24.595Z,19.73
2019-04-20T15:29:54.049Z,19.73
2019-04-20T15:32:23.055Z,18.73
2019-04-20T15:34:52.939Z,17.32
2019-04-20T15:37:23.321Z,16.19
2019-04-20T15:39:52.837Z,14.70
2019-04-20T15:42:21.580Z,14.12
2019-04-20T15:44:51.431Z,14.00
2019-04-20T15:47:20.374Z,13.58
2019-04-20T15:49:49.785Z,13.54
2019-04-20T15:52:24.518Z,13.45
2019-04-20T15:54:49.696Z,13.19
2019-04-20T15:57:23.264Z,13.07
2019-04-20T15:59:48.860Z,12.74
2019-04-20T16:02:23.050Z,12.46
2019-04-20T16:05:00.519Z,12.44
2019-04-20T16:07:30.763Z,12.16
2019-04-20T16:10:01.107Z,12.09
2019-04-20T16:12:31.068Z,11.96
2019-04-20T16:15:00.043Z,11.67
2019-04-20T16:17:32.754Z,11.63
2019-04-20T16:20:06.235Z,11.57
2019-04-20T16:22:31.019Z,11.46
2019-04-20T16:25:07.609Z,11.41
2019-04-20T16:27:38.103Z,11.39
2019-04-20T16:30:09.707Z,11.31
2019-04-20T16:32:38.640Z,11.27
2019-04-20T16:35:08.785Z,11.27
2019-04-20T16:37:38.392Z,11.14
2019-04-20T16:40:09.873Z,11.21
2019-04-20T16:42:41.798Z,11.19
2019-04-20T16:45:09.588Z,11.12
2019-04-20T16:47:38.329Z,11.07
2019-04-20T16:50:07.249Z,10.95
2019-04-20T16:52:36.931Z,10.80
2019-04-20T16:55:08.100Z,10.73
2019-04-20T16:57:37.434Z,10.59
2019-04-20T17:00:07.728Z,10.52
2019-04-20T17:02:36.457Z,10.43
2019-04-20T17:05:05.480Z,10.36
2019-04-20T17:07:37.164Z,10.22
2019-04-20T17:10:09.637Z,10.15
2019-04-20T17:12:39.948Z,10.13
2019-04-20T17:15:11.766Z,10.11
2019-04-20T17:17:40.744Z,10.05
2019-04-20T17:20:11.613Z,9.91
2019-04-20T17:22:40.422Z,9.74
2019-04-20T17:25:10.115Z,9.65
2019-04-20T17:27:44.748Z,9.44
2019-04-20T17:30:33.644Z,9.37
2019-04-20T17:33:04.390Z,9.36
2019-04-20T17:35:43.445Z,9.34
2019-04-20T17:38:04.764Z,9.29
2019-04-20T17:40:56.378Z,9.17
2019-04-20T17:43:16.009Z,9.01
2019-04-20T17:45:43.207Z,8.81
2019-04-20T17:48:18.588Z,8.66
2019-04-20T17:50:58.954Z,8.56
2019-04-20T17:53:20.419Z,8.44
2019-04-20T17:55:51.352Z,8.37
2019-04-20T17:58:24.133Z,8.35
2019-04-20T18:00:59.847Z,8.33
2019-04-20T18:04:05.498Z,8.23
2019-04-20T18:06:21.265Z,8.14
2019-04-20T18:08:49.405Z,7.80
2019-04-20T18:11:09.179Z,7.79
2019-04-20T18:13:34.095Z,7.69
2019-04-20T18:16:30.027Z,7.64
2019-04-20T18:19:01.977Z,7.58
2019-04-20T18:21:26.660Z,7.57
2019-04-20T18:23:56.254Z,7.57
2019-04-20T18:26:45.367Z,7.66
2019-04-20T18:29:15.007Z,7.67
2019-04-20T18:31:33.639Z,7.64
2019-04-20T18:34:11.270Z,7.51
2019-04-20T18:36:38.268Z,7.40
2019-04-20T18:39:10.463Z,7.30
2019-04-20T18:41:46.500Z,7.30
2019-04-20T18:44:08.626Z,7.24
2019-04-20T18:47:00.313Z,7.31
2019-04-20T18:49:24.214Z,7.33
2019-04-20T18:51:39.817Z,7.38
2019-04-20T18:54:16.208Z,7.35
2019-04-20T18:56:43.721Z,7.44
2019-04-20T18:59:09.430Z,7.40
2019-04-20T19:01:42.035Z,7.33
2019-04-20T19:04:09.866Z,7.33
2019-04-20T19:06:38.918Z,7.33
2019-04-20T19:09:09.533Z,7.32
2019-04-20T19:11:43.702Z,7.30
2019-04-20T19:14:34.956Z,7.07
2019-04-20T19:17:12.272Z,6.88
2019-04-20T19:19:42.429Z,6.82
2019-04-20T19:22:06.036Z,6.84
2019-04-20T19:24:37.893Z,6.76
2019-04-20T19:27:10.658Z,6.71
2019-04-20T19:29:45.610Z,6.65
2019-04-20T19:32:24.084Z,6.62
2019-04-20T19:34:54.137Z,6.55
2019-04-20T19:37:15.816Z,6.49
2019-04-20T19:39:54.682Z,6.48
2019-04-20T19:42:23.199Z,6.39
2019-04-20T19:44:53.801Z,6.38
2019-04-20T19:47:29.415Z,6.29
2019-04-20T19:49:49.739Z,6.27
2019-04-20T19:52:51.476Z,6.30
2019-04-20T19:55:04.093Z,6.35
2019-04-20T19:57:32.017Z,6.25
2019-04-20T19:59:48.373Z,6.15
2019-04-20T20:02:11.869Z,6.12
2019-04-20T20:04:48.807Z,6.02
2019-04-20T20:07:23.213Z,6.01
2019-04-20T20:09:51.580Z,5.97
2019-04-20T20:12:15.874Z,6.02
2019-04-20T20:14:46.077Z,6.00
2019-04-20T20:17:32.743Z,5.91
2019-04-20T20:20:06.765Z,5.84
2019-04-20T20:22:26.694Z,5.85
2019-04-20T20:24:45.097Z,5.81
2019-04-20T20:27:26.897Z,5.87
2019-04-20T20:29:57.243Z,5.92
2019-04-20T20:32:21.337Z,6.04
2019-04-20T20:34:54.408Z,6.11
2019-04-20T20:37:26.712Z,6.08
2019-04-20T20:39:54.382Z,6.09
2019-04-20T20:42:32.219Z,6.03
2019-04-20T20:44:54.965Z,5.97
2019-04-20T20:47:41.418Z,5.97
2019-04-20T20:50:15.437Z,5.99
2019-04-20T20:52:31.524Z,5.91
2019-04-20T20:54:58.850Z,5.89
2019-04-20T20:57:24.305Z,5.90
2019-04-20T20:59:55.268Z,5.92
2019-04-20T21:02:24.417Z,5.89
2019-04-20T21:04:51.321Z,5.80
2019-04-20T21:07:20.599Z,5.81
2019-04-20T21:09:50.414Z,5.84
2019-04-20T21:12:21.589Z,5.85
2019-04-20T21:14:50.929Z,5.70
2019-04-20T21:17:23.613Z,5.70
2019-04-20T21:20:06.355Z,5.63
2019-04-20T21:22:42.934Z,5.62
2019-04-20T21:24:55.263Z,5.59
2019-04-20T21:27:24.140Z,5.45
2019-04-20T21:29:57.865Z,5.46
2019-04-20T21:32:26.152Z,5.36
2019-04-20T21:35:02.671Z,5.36
2019-04-20T21:37:27.118Z,5.30
2019-04-20T21:39:59.715Z,5.31
2019-04-20T21:42:28.530Z,5.29
2019-04-20T21:45:05.599Z,5.25
2019-04-20T21:47:31.485Z,5.28
2019-04-20T21:50:17.123Z,5.34
2019-04-20T21:52:36.199Z,5.35
2019-04-20T21:54:58.435Z,5.38
2019-04-20T21:57:32.485Z,5.38
2019-04-20T22:00:07.035Z,5.40
2019-04-20T22:02:33.920Z,5.35
2019-04-20T22:04:58.262Z,5.32
2019-04-20T22:07:28.247Z,5.23
2019-04-20T22:09:58.424Z,5.23
2019-04-20T22:12:37.826Z,5.21
2019-04-20T22:15:03.952Z,5.26
2019-04-20T22:17:32.166Z,5.27
2019-04-20T22:20:07.012Z,5.17
2019-04-20T22:22:45.379Z,5.17
2019-04-20T22:25:16.122Z,5.14
2019-04-20T22:27:34.358Z,5.22
2019-04-20T22:30:00.115Z,5.19
2019-04-20T22:32:29.972Z,5.25
2019-04-20T22:35:03.184Z,5.20
2019-04-20T22:37:33.325Z,5.05
2019-04-20T22:40:03.089Z,4.99
2019-04-20T22:42:37.909Z,4.84
2019-04-20T22:45:07.239Z,4.65
2019-04-20T22:47:33.977Z,4.57
2019-04-20T22:50:21.572Z,4.50
2019-04-20T22:52:44.366Z,4.35
2019-04-20T22:55:31.233Z,4.35
2019-04-20T22:57:50.939Z,4.54
2019-04-20T23:00:12.286Z,4.57
2019-04-20T23:02:36.768Z,4.54
2019-04-20T23:05:07.037Z,4.43
2019-04-20T23:07:36.927Z,4.48
2019-04-20T23:10:08.731Z,4.48
2019-04-20T23:12:39.956Z,4.44
2019-04-20T23:15:10.355Z,4.38
2019-04-20T23:17:43.640Z,4.40
2019-04-20T23:20:17.166Z,4.40
2019-04-20T23:22:43.964Z,4.40
2019-04-20T23:25:11.286Z,4.31
2019-04-20T23:27:41.799Z,4.24
2019-04-20T23:30:20.246Z,4.22
2019-04-20T23:32:42.197Z,4.27
2019-04-20T23:35:16.267Z,4.29
2019-04-20T23:37:43.232Z,4.29
2019-04-20T23:40:15.025Z,4.19
2019-04-20T23:42:51.760Z,4.05
2019-04-20T23:45:35.497Z,3.98
2019-04-20T23:48:04.313Z,3.89
2019-04-20T23:50:49.012Z,3.92
2019-04-20T23:53:22.319Z,3.87
2019-04-20T23:55:31.921Z,3.81
2019-04-20T23:58:04.974Z,3.68
